createdAt,value
2022-12-17T00:02:27.769Z,-0.50
2022-12-17T00:05:13.678Z,-0.50
2022-12-17T00:08:01.108Z,-0.40
2022-12-17T00:10:46.873Z,-0.50
2022-12-17T00:13:40.603Z,-0.30
2022-12-17T00:16:26.862Z,-0.40
2022-12-17T00:19:12.711Z,-0.40
2022-12-17T00:21:58.369Z,-0.30
2022-12-17T00:24:45.441Z,-0.40
2022-12-17T00:27:31.074Z,-0.40
2022-12-17T00:30:16.612Z,-0.40
2022-12-17T00:32:59.927Z,-0.30
2022-12-17T00:35:45.341Z,-0.30
2022-12-17T00:38:35.128Z,-0.30
2022-12-17T00:41:23.070Z,-0.30
2022-12-17T00:44:08.542Z,-0.30
2022-12-17T00:46:54.950Z,-0.30
2022-12-17T00:49:44.122Z,-0.30
2022-12-17T00:52:29.588Z,-0.30
2022-12-17T00:55:14.999Z,-0.30
2022-12-17T00:58:02.057Z,-0.30
2022-12-17T01:00:47.664Z,-0.30
2022-12-17T01:03:34.323Z,-0.30
2022-12-17T01:06:23.041Z,-0.30
2022-12-17T01:09:08.462Z,-0.20
2022-12-17T01:11:56.657Z,-0.20
2022-12-17T01:14:44.855Z,-0.20
2022-12-17T01:17:31.122Z,-0.20
2022-12-17T01:20:16.872Z,-0.10
2022-12-17T01:23:04.570Z,-0.10
2022-12-17T01:25:50.080Z,0.00
2022-12-17T01:28:41.328Z,0.00
2022-12-17T01:31:33.125Z,0.10
2022-12-17T01:34:20.909Z,0.10
2022-12-17T01:37:06.482Z,0.20
2022-12-17T01:39:52.066Z,0.20
2022-12-17T01:42:37.966Z,0.30
2022-12-17T01:45:28.927Z,0.40
2022-12-17T01:48:21.771Z,0.30
2022-12-17T01:51:12.357Z,0.30
2022-12-17T01:54:05.148Z,0.30
2022-12-17T01:56:51.645Z,0.40
2022-12-17T01:59:45.718Z,0.40
2022-12-17T02:02:31.648Z,0.60
2022-12-17T02:05:19.072Z,0.60
2022-12-17T02:08:27.363Z,0.50
2022-12-17T02:11:22.155Z,0.60
2022-12-17T02:14:36.707Z,0.50
2022-12-17T02:17:32.041Z,0.50
2022-12-17T02:20:41.656Z,0.30
2022-12-17T02:23:47.794Z,0.10
2022-12-17T02:26:48.043Z,-0.10
2022-12-17T02:29:32.965Z,-0.20
2022-12-17T02:32:21.296Z,-0.30
2022-12-17T02:35:07.833Z,-0.40
2022-12-17T02:37:54.975Z,-0.40
2022-12-17T02:40:43.186Z,-0.40
2022-12-17T02:43:45.585Z,-0.40
2022-12-17T02:46:33.032Z,-0.40
2022-12-17T02:49:18.671Z,-0.40
2022-12-17T02:52:06.812Z,-0.30
2022-12-17T02:55:05.155Z,-0.30
2022-12-17T02:57:54.065Z,-0.20
2022-12-17T03:00:42.399Z,-0.10
2022-12-17T03:03:28.431Z,-0.20
2022-12-17T03:06:14.362Z,-0.30
2022-12-17T03:09:01.642Z,-0.40
2022-12-17T03:12:02.928Z,-0.40
2022-12-17T03:14:48.542Z,-0.40
2022-12-17T03:17:35.169Z,-0.40
2022-12-17T03:20:20.673Z,-0.40
2022-12-17T03:23:06.290Z,-0.40
2022-12-17T03:25:51.852Z,-0.40
2022-12-17T03:28:37.392Z,-0.50
2022-12-17T03:31:23.101Z,-0.50
2022-12-17T03:34:10.336Z,-0.60
2022-12-17T03:36:56.007Z,-0.70
2022-12-17T03:39:41.582Z,-0.60
2022-12-17T03:42:27.382Z,-0.50
2022-12-17T03:45:13.111Z,-0.50
2022-12-17T03:47:58.575Z,-0.50
2022-12-17T03:50:45.692Z,-0.40
2022-12-17T03:53:31.492Z,-0.30
2022-12-17T03:56:19.190Z,-0.20
2022-12-17T03:59:07.072Z,-0.20
2022-12-17T04:01:52.893Z,-0.20
2022-12-17T04:04:38.410Z,-0.30
2022-12-17T04:07:25.695Z,-0.30
2022-12-17T04:10:11.495Z,-0.30
2022-12-17T04:12:57.000Z,-0.30
2022-12-17T04:15:42.519Z,-0.30
2022-12-17T04:18:28.405Z,-0.30
2022-12-17T04:21:13.976Z,-0.40
2022-12-17T04:24:01.377Z,-0.30
2022-12-17T04:26:47.017Z,-0.30
2022-12-17T04:29:32.685Z,-0.30
2022-12-17T04:32:18.335Z,-0.30
2022-12-17T04:35:04.179Z,-0.30
2022-12-17T04:37:49.952Z,-0.30
2022-12-17T04:40:37.295Z,-0.30
2022-12-17T04:43:27.256Z,-0.30
2022-12-17T04:46:13.330Z,-0.20
2022-12-17T04:48:59.162Z,-0.30
2022-12-17T04:51:44.710Z,-0.30
2022-12-17T04:54:30.634Z,-0.80
2022-12-17T04:57:17.464Z,-0.30
2022-12-17T05:00:03.084Z,-0.30
2022-12-17T05:02:48.963Z,-0.30
2022-12-17T05:05:34.969Z,-0.20
2022-12-17T05:08:25.838Z,-0.20
2022-12-17T05:11:11.371Z,-0.20
2022-12-17T05:13:58.691Z,-0.20
2022-12-17T05:16:44.303Z,-0.20
2022-12-17T05:19:29.933Z,-0.20
2022-12-17T05:22:15.455Z,-0.20
2022-12-17T05:25:01.152Z,-0.30
2022-12-17T05:27:46.817Z,-0.40
2022-12-17T05:30:33.686Z,-0.40
2022-12-17T05:33:20.450Z,-0.40
2022-12-17T05:36:06.768Z,-0.40
2022-12-17T05:38:52.335Z,-0.40
2022-12-17T05:41:38.006Z,-0.40
2022-12-17T05:44:23.877Z,-0.30
2022-12-17T05:47:13.636Z,-0.30
2022-12-17T05:49:59.201Z,-0.30
2022-12-17T05:52:44.916Z,-0.30
2022-12-17T05:55:30.858Z,-0.30
2022-12-17T05:58:22.535Z,-0.30
2022-12-17T06:01:08.571Z,-0.20
2022-12-17T06:03:55.482Z,-0.20
2022-12-17T06:06:41.376Z,-0.30
2022-12-17T06:09:26.817Z,-0.50
2022-12-17T06:12:12.489Z,-0.80
2022-12-17T06:14:58.490Z,-1.00
2022-12-17T06:17:44.076Z,-1.10
2022-12-17T06:20:31.024Z,-1.00
2022-12-17T06:23:20.550Z,-1.00
2022-12-17T06:26:06.647Z,-0.90
2022-12-17T06:28:52.123Z,-0.80
2022-12-17T06:31:37.835Z,-0.80
2022-12-17T06:34:28.943Z,-0.70
2022-12-17T06:37:15.749Z,-0.70
2022-12-17T06:40:01.359Z,-0.70
2022-12-17T06:42:47.107Z,0.90
2022-12-17T06:45:32.753Z,-0.70
2022-12-17T06:48:22.046Z,-0.80
2022-12-17T06:51:07.710Z,-0.90
2022-12-17T06:53:54.896Z,-0.90
2022-12-17T06:56:40.591Z,-0.90
2022-12-17T06:59:26.335Z,-0.80
2022-12-17T07:02:12.100Z,-0.80
2022-12-17T07:04:57.991Z,-0.80
2022-12-17T07:07:44.875Z,-0.80
2022-12-17T07:10:31.915Z,-0.80
2022-12-17T07:13:24.799Z,-0.80
2022-12-17T07:16:11.391Z,-0.70
2022-12-17T07:18:57.251Z,-0.60
2022-12-17T07:21:43.366Z,-0.70
2022-12-17T07:24:29.575Z,-0.70
2022-12-17T07:27:16.261Z,-0.70
2022-12-17T07:30:01.952Z,-0.70
2022-12-17T07:32:47.033Z,-0.60
2022-12-17T07:35:32.806Z,-0.60
2022-12-17T07:38:19.363Z,-0.50
2022-12-17T07:41:05.064Z,-0.50
2022-12-17T07:43:53.443Z,-0.50
2022-12-17T07:46:39.941Z,-0.40
2022-12-17T07:49:26.196Z,-0.40
2022-12-17T07:52:11.168Z,-0.40
2022-12-17T07:54:56.946Z,-0.50
2022-12-17T07:57:43.053Z,-0.40
2022-12-17T08:00:32.341Z,-0.30
2022-12-17T08:03:19.595Z,-0.30
2022-12-17T08:06:05.431Z,-0.20
2022-12-17T08:08:50.977Z,-0.20
2022-12-17T08:11:36.708Z,-0.10
2022-12-17T08:14:22.183Z,0.00
2022-12-17T08:17:09.169Z,0.00
2022-12-17T08:19:56.241Z,0.10
2022-12-17T08:22:42.114Z,0.20
2022-12-17T08:25:28.438Z,0.20
2022-12-17T08:28:48.559Z,0.30
2022-12-17T08:31:21.854Z,0.40
2022-12-17T08:34:08.918Z,0.50
2022-12-17T08:36:54.966Z,0.60
2022-12-17T08:39:40.534Z,0.60
2022-12-17T08:42:26.051Z,0.70
2022-12-17T08:45:11.678Z,0.70
2022-12-17T08:48:02.160Z,0.80
2022-12-17T08:50:50.979Z,0.90
2022-12-17T08:53:36.989Z,1.00
2022-12-17T08:56:23.622Z,0.90
2022-12-17T08:59:08.971Z,-0.20
2022-12-17T09:01:54.711Z,0.90
2022-12-17T09:04:40.604Z,0.90
2022-12-17T09:07:27.550Z,0.80
2022-12-17T09:10:13.436Z,0.70
2022-12-17T09:13:04.938Z,0.40
2022-12-17T09:15:51.047Z,0.40
2022-12-17T09:18:38.471Z,0.30
2022-12-17T09:21:25.645Z,0.40
2022-12-17T09:24:13.048Z,1.50
2022-12-17T09:27:06.888Z,0.90
2022-12-17T09:29:52.454Z,1.20
2022-12-17T09:32:38.420Z,1.30
2022-12-17T09:35:23.608Z,1.50
2022-12-17T09:38:11.028Z,1.70
2022-12-17T09:41:00.088Z,2.10
2022-12-17T09:43:57.217Z,2.60
2022-12-17T09:46:55.521Z,3.10
2022-12-17T09:49:46.125Z,3.50
2022-12-17T09:52:42.858Z,3.80
2022-12-17T09:55:38.383Z,3.90
2022-12-17T09:58:37.455Z,4.00
2022-12-17T10:01:25.103Z,4.00
2022-12-17T10:04:11.063Z,3.80
2022-12-17T10:06:56.768Z,3.50
2022-12-17T10:09:47.194Z,3.40
2022-12-17T10:12:35.775Z,3.50
2022-12-17T10:15:25.218Z,3.60
2022-12-17T10:18:11.300Z,3.60
2022-12-17T10:21:02.529Z,3.50
2022-12-17T10:23:51.201Z,3.20
2022-12-17T10:26:40.479Z,3.00
2022-12-17T10:29:31.552Z,2.80
2022-12-17T10:32:37.446Z,2.60
2022-12-17T10:35:27.849Z,2.50
2022-12-17T10:38:13.359Z,2.40
2022-12-17T10:40:58.846Z,2.40
2022-12-17T10:43:47.856Z,2.50
2022-12-17T10:46:44.838Z,2.50
2022-12-17T10:49:35.000Z,2.50
2022-12-17T10:52:25.634Z,2.20
2022-12-17T10:55:19.173Z,1.80
2022-12-17T10:58:07.966Z,1.30
2022-12-17T11:00:57.677Z,1.30
2022-12-17T11:03:51.015Z,1.30
2022-12-17T11:06:46.036Z,1.40
2022-12-17T11:09:48.252Z,1.40
2022-12-17T11:12:38.508Z,1.50
2022-12-17T11:15:37.590Z,1.90
2022-12-17T11:18:29.375Z,2.30
2022-12-17T11:21:24.953Z,2.50
2022-12-17T11:24:19.120Z,2.60
2022-12-17T11:27:13.077Z,2.90
2022-12-17T11:29:58.629Z,3.00
2022-12-17T11:33:09.130Z,3.10
2022-12-17T11:36:06.279Z,3.10
2022-12-17T11:39:12.123Z,3.10
2022-12-17T11:42:16.419Z,3.00
2022-12-17T11:45:18.175Z,2.90
2022-12-17T11:48:12.972Z,2.90
2022-12-17T11:51:08.661Z,3.00
2022-12-17T11:54:09.886Z,3.00
2022-12-17T11:57:04.130Z,2.90
2022-12-17T12:00:00.784Z,2.90
2022-12-17T12:03:07.534Z,3.00
2022-12-17T12:06:06.918Z,3.00
2022-12-17T12:09:03.631Z,3.00
2022-12-17T12:11:56.948Z,3.00
2022-12-17T12:14:57.342Z,3.00
2022-12-17T12:17:56.487Z,3.00
2022-12-17T12:21:06.526Z,2.90
2022-12-17T12:24:10.350Z,2.70
2022-12-17T12:27:10.581Z,2.60
2022-12-17T12:30:15.365Z,2.50
2022-12-17T12:33:16.001Z,2.60
2022-12-17T12:36:02.156Z,2.60
2022-12-17T12:38:55.510Z,2.80
2022-12-17T12:41:59.457Z,2.90
2022-12-17T12:44:57.103Z,3.00
2022-12-17T12:47:56.600Z,3.20
2022-12-17T12:50:54.282Z,3.20
2022-12-17T12:53:40.302Z,3.10
2022-12-17T12:56:45.560Z,3.20
2022-12-17T12:59:43.629Z,3.10
2022-12-17T13:02:45.567Z,3.10
2022-12-17T13:05:34.486Z,2.90
2022-12-17T13:08:20.904Z,2.80
2022-12-17T13:10:50.815Z,2.80
2022-12-17T13:13:35.768Z,2.60
2022-12-17T13:16:25.471Z,2.50
2022-12-17T13:19:06.229Z,2.40
2022-12-17T13:21:34.350Z,2.40
2022-12-17T13:24:12.722Z,2.30
2022-12-17T13:26:46.114Z,2.20
2022-12-17T13:29:28.094Z,2.10
2022-12-17T13:32:12.789Z,2.10
2022-12-17T13:35:03.251Z,2.00
2022-12-17T13:37:46.815Z,2.00
2022-12-17T13:40:32.218Z,1.90
2022-12-17T13:43:00.543Z,1.70
2022-12-17T13:45:29.672Z,1.60
2022-12-17T13:48:00.142Z,1.50
2022-12-17T13:50:34.399Z,1.40
2022-12-17T13:53:12.091Z,1.30
2022-12-17T13:55:40.362Z,1.30
2022-12-17T13:58:24.151Z,1.20
2022-12-17T14:00:52.785Z,2.50
2022-12-17T14:03:43.183Z,1.10
2022-12-17T14:06:13.747Z,1.10
2022-12-17T14:08:42.813Z,0.90
2022-12-17T14:11:31.210Z,0.90
2022-12-17T14:13:59.710Z,0.80
2022-12-17T14:16:28.037Z,0.80
2022-12-17T14:18:58.983Z,0.70
2022-12-17T14:21:29.767Z,0.60
2022-12-17T14:23:59.059Z,0.50
2022-12-17T14:26:27.215Z,0.40
2022-12-17T14:28:56.833Z,0.40
2022-12-17T14:31:29.393Z,0.30
2022-12-17T14:34:08.301Z,0.20
2022-12-17T14:36:41.163Z,0.10
2022-12-17T14:39:21.214Z,0.10
2022-12-17T14:42:06.498Z,0.00
2022-12-17T14:44:35.527Z,0.00
2022-12-17T14:47:19.594Z,-0.10
2022-12-17T14:49:58.161Z,-0.20
2022-12-17T14:52:43.890Z,-0.30
2022-12-17T14:55:32.247Z,-0.30
2022-12-17T14:58:19.702Z,-0.40
2022-12-17T15:00:56.837Z,-0.50
2022-12-17T15:03:29.900Z,-0.50
2022-12-17T15:06:03.099Z,-0.60
2022-12-17T15:08:37.777Z,-0.70
2022-12-17T15:11:06.506Z,-0.80
2022-12-17T15:13:34.848Z,-0.80
2022-12-17T15:16:03.602Z,-0.90
2022-12-17T15:18:31.702Z,-0.90
2022-12-17T15:20:59.904Z,-1.00
2022-12-17T15:23:28.032Z,-1.10
2022-12-17T15:25:57.420Z,-1.10
2022-12-17T15:28:25.732Z,-1.20
2022-12-17T15:30:53.985Z,-1.20
2022-12-17T15:33:22.275Z,-1.30
2022-12-17T15:35:50.308Z,-1.30
2022-12-17T15:38:18.347Z,-1.40
2022-12-17T15:40:46.393Z,-1.40
2022-12-17T15:43:15.863Z,-1.40
2022-12-17T15:45:46.512Z,-1.40
2022-12-17T15:48:18.448Z,-1.50
2022-12-17T15:50:47.746Z,-1.50
2022-12-17T15:53:16.304Z,-1.60
2022-12-17T15:55:44.635Z,-1.50
2022-12-17T15:58:13.849Z,-1.60
2022-12-17T16:00:43.282Z,-1.60
2022-12-17T16:03:11.397Z,-1.70
2022-12-17T16:05:39.528Z,-1.70
2022-12-17T16:08:07.730Z,-1.70
2022-12-17T16:10:35.828Z,-1.70
2022-12-17T16:13:03.919Z,-1.80
2022-12-17T16:15:32.741Z,-1.90
2022-12-17T16:18:02.176Z,-1.90
2022-12-17T16:20:30.343Z,-1.90
2022-12-17T16:22:58.490Z,-2.00
2022-12-17T16:25:26.572Z,-2.00
2022-12-17T16:27:57.425Z,-2.00
2022-12-17T16:30:25.437Z,-2.10
2022-12-17T16:32:53.434Z,-2.10
2022-12-17T16:35:23.899Z,-2.20
2022-12-17T16:37:52.064Z,-2.20
2022-12-17T16:40:20.070Z,-2.20
2022-12-17T16:42:48.384Z,-2.20
2022-12-17T16:45:16.967Z,-2.20
2022-12-17T16:47:45.139Z,-2.30
2022-12-17T16:50:13.159Z,-2.30
2022-12-17T16:52:42.927Z,-2.30
2022-12-17T16:55:11.244Z,-2.30
2022-12-17T16:57:39.327Z,-2.30
2022-12-17T17:00:09.600Z,-2.30
2022-12-17T17:02:37.926Z,-2.40
2022-12-17T17:05:07.163Z,-2.30
2022-12-17T17:07:35.185Z,-2.30
2022-12-17T17:10:05.677Z,-2.30
2022-12-17T17:12:34.117Z,-2.30
2022-12-17T17:15:02.462Z,-2.40
2022-12-17T17:17:55.084Z,-2.40
2022-12-17T17:20:18.721Z,-2.40
2022-12-17T17:22:46.748Z,-2.50
2022-12-17T17:25:16.311Z,-2.90
2022-12-17T17:27:44.558Z,-2.60
2022-12-17T17:30:13.962Z,-2.60
2022-12-17T17:32:42.445Z,-2.50
2022-12-17T17:35:10.927Z,-2.50
2022-12-17T17:37:39.564Z,-2.50
2022-12-17T17:40:09.662Z,-2.50
2022-12-17T17:42:39.023Z,-2.40
2022-12-17T17:45:08.931Z,-2.40
2022-12-17T17:47:37.296Z,-2.30
2022-12-17T17:50:06.816Z,-2.30
2022-12-17T17:52:34.813Z,-2.30
2022-12-17T17:55:02.860Z,-2.30
2022-12-17T17:57:30.874Z,-2.30
2022-12-17T18:00:00.230Z,-2.30
2022-12-17T18:02:28.630Z,-2.30
2022-12-17T18:04:56.800Z,-2.30
2022-12-17T18:07:26.357Z,-2.30
2022-12-17T18:09:55.430Z,-2.30
2022-12-17T18:12:42.076Z,-2.30
2022-12-17T18:15:15.437Z,-2.40
2022-12-17T18:17:45.267Z,-2.40
2022-12-17T18:20:14.372Z,-2.40
2022-12-17T18:22:43.217Z,-2.40
2022-12-17T18:25:11.366Z,-2.40
2022-12-17T18:27:39.568Z,-2.40
2022-12-17T18:30:09.103Z,-2.40
2022-12-17T18:32:38.644Z,-2.40
2022-12-17T18:35:08.149Z,-2.50
2022-12-17T18:37:36.512Z,-2.50
2022-12-17T18:40:06.204Z,-2.50
2022-12-17T18:42:52.683Z,-2.50
2022-12-17T18:45:20.721Z,-2.50
2022-12-17T18:47:52.184Z,-2.50
2022-12-17T18:50:20.357Z,-2.60
2022-12-17T18:52:48.413Z,-2.50
2022-12-17T18:55:16.881Z,-2.50
2022-12-17T18:57:44.915Z,-2.50
2022-12-17T19:00:15.671Z,-2.50
2022-12-17T19:02:44.321Z,-2.50
2022-12-17T19:05:13.929Z,-2.50
2022-12-17T19:07:42.268Z,-2.40
2022-12-17T19:10:11.627Z,-2.40
2022-12-17T19:12:39.692Z,-2.50
2022-12-17T19:15:09.594Z,-2.60
2022-12-17T19:17:37.975Z,-2.60
2022-12-17T19:20:07.285Z,-2.60
2022-12-17T19:22:37.018Z,-2.70
2022-12-17T19:25:05.777Z,-2.70
2022-12-17T19:27:33.863Z,-2.70
2022-12-17T19:30:01.889Z,-2.70
2022-12-17T19:32:29.900Z,-2.80
2022-12-17T19:34:57.894Z,-2.90
2022-12-17T19:37:26.298Z,-2.80
2022-12-17T19:39:56.345Z,-2.90
2022-12-17T19:42:34.954Z,-3.00
2022-12-17T19:45:05.564Z,-3.00
2022-12-17T19:47:33.606Z,-3.10
2022-12-17T19:50:02.460Z,-3.10
2022-12-17T19:52:30.500Z,-3.20
2022-12-17T19:54:59.878Z,-3.20
2022-12-17T19:57:30.431Z,-3.30
2022-12-17T19:59:58.473Z,-3.30
2022-12-17T20:02:31.142Z,-3.30
2022-12-17T20:05:01.245Z,-3.30
2022-12-17T20:07:29.276Z,-3.40
2022-12-17T20:09:58.695Z,-3.50
2022-12-17T20:12:26.850Z,-3.50
2022-12-17T20:14:54.873Z,-3.60
2022-12-17T20:17:24.651Z,-3.60
2022-12-17T20:19:54.906Z,-3.70
2022-12-17T20:22:23.540Z,-3.70
2022-12-17T20:24:53.878Z,-3.70
2022-12-17T20:27:23.363Z,-3.70
2022-12-17T20:29:51.371Z,-3.80
2022-12-17T20:32:21.211Z,-3.80
2022-12-17T20:34:49.381Z,-3.80
2022-12-17T20:37:17.755Z,-3.80
2022-12-17T20:39:45.871Z,-3.80
2022-12-17T20:42:13.967Z,-3.80
2022-12-17T20:44:46.372Z,-3.80
2022-12-17T20:47:16.750Z,-3.80
2022-12-17T20:49:44.866Z,-3.90
2022-12-17T20:52:13.227Z,-3.90
2022-12-17T20:54:41.341Z,-3.90
2022-12-17T20:57:09.479Z,-4.30
2022-12-17T20:59:37.607Z,-3.90
2022-12-17T21:02:07.370Z,-3.90
2022-12-17T21:04:35.888Z,-3.20
2022-12-17T21:07:04.006Z,-4.00
2022-12-17T21:09:32.190Z,-3.90
2022-12-17T21:12:00.253Z,-4.00
2022-12-17T21:14:35.500Z,-4.00
2022-12-17T21:17:04.877Z,-3.90
2022-12-17T21:19:34.880Z,-3.90
2022-12-17T21:22:02.977Z,-3.80
2022-12-17T21:24:30.994Z,-3.90
2022-12-17T21:26:59.398Z,-3.90
2022-12-17T21:29:30.591Z,-3.90
2022-12-17T21:31:58.621Z,-4.00
2022-12-17T21:34:29.193Z,-4.00
2022-12-17T21:36:58.750Z,-4.00
2022-12-17T21:39:27.146Z,-4.00
2022-12-17T21:42:12.749Z,-4.00
2022-12-17T21:44:40.772Z,-4.00
2022-12-17T21:47:09.087Z,-4.10
2022-12-17T21:49:37.503Z,-4.20
2022-12-17T21:52:07.446Z,-4.20
2022-12-17T21:54:39.424Z,-4.10
2022-12-17T21:57:08.112Z,-4.10
2022-12-17T21:59:36.181Z,-4.10
2022-12-17T22:02:04.294Z,-4.10
2022-12-17T22:04:32.575Z,-4.10
2022-12-17T22:07:07.925Z,-4.10
2022-12-17T22:10:10.181Z,-4.10
2022-12-17T22:12:53.858Z,-4.10
2022-12-17T22:15:21.912Z,-4.20
2022-12-17T22:17:54.969Z,-4.20
2022-12-17T22:20:24.680Z,-4.20
2022-12-17T22:22:53.074Z,-4.10
2022-12-17T22:25:22.656Z,-4.10
2022-12-17T22:27:50.798Z,-4.00
2022-12-17T22:30:36.702Z,-4.00
2022-12-17T22:33:12.087Z,-4.00
2022-12-17T22:38:28.362Z,-4.10
2022-12-17T22:40:44.311Z,-4.10
2022-12-17T22:44:37.198Z,-4.20
2022-12-17T22:44:54.693Z,-4.20
2022-12-17T22:47:24.050Z,-4.20
2022-12-17T22:49:52.474Z,-4.30
2022-12-17T22:52:21.414Z,-4.30
2022-12-17T22:54:49.866Z,-4.40
2022-12-17T22:57:36.531Z,-4.40
2022-12-17T23:00:14.104Z,-4.40
2022-12-17T23:02:42.331Z,-4.50
2022-12-17T23:05:10.801Z,-4.50
2022-12-17T23:07:38.849Z,-4.50
2022-12-17T23:10:07.932Z,-4.50
2022-12-17T23:12:53.101Z,-4.40
2022-12-17T23:15:29.341Z,-4.40
2022-12-17T23:18:01.204Z,-4.30
2022-12-17T23:20:33.226Z,-4.30
2022-12-17T23:23:02.168Z,-4.30
2022-12-17T23:25:30.630Z,-4.40
2022-12-17T23:28:00.278Z,-4.40
2022-12-17T23:30:28.510Z,-4.50
2022-12-17T23:32:56.563Z,-4.50
2022-12-17T23:35:25.130Z,-4.50
2022-12-17T23:37:53.521Z,-4.50
2022-12-17T23:40:22.387Z,-4.40
2022-12-17T23:42:50.625Z,-4.40
2022-12-17T23:45:20.561Z,-4.40
2022-12-17T23:47:48.579Z,-4.30
2022-12-17T23:50:18.159Z,-4.10
2022-12-17T23:52:46.174Z,-3.80
2022-12-17T23:55:14.232Z,-3.70
2022-12-17T23:57:42.298Z,-3.60
